createdAt,value
2022-08-20T00:00:10.152Z,77.31
2022-08-20T00:01:10.151Z,77.02
2022-08-20T00:02:10.437Z,77.02
2022-08-20T00:03:09.879Z,77.21
2022-08-20T00:04:11.320Z,77.02
2022-08-20T00:05:09.870Z,77.31
2022-08-20T00:06:10.191Z,77.4
2022-08-20T00:07:10.109Z,78.17
2022-08-20T00:08:10.110Z,77.78
2022-08-20T00:09:10.105Z,77.5
2022-08-20T00:10:09.843Z,77.4
2022-08-20T00:11:10.992Z,77.78
2022-08-20T00:12:09.831Z,77.88
2022-08-20T00:13:10.084Z,77.97
2022-08-20T00:14:10.071Z,77.78
2022-08-20T00:15:09.807Z,78.17
2022-08-20T00:16:10.058Z,77.78
2022-08-20T00:17:09.801Z,77.69
2022-08-20T00:18:09.791Z,77.78
2022-08-20T00:19:09.781Z,77.78
2022-08-20T00:20:10.037Z,77.78
2022-08-20T00:21:10.026Z,77.88
2022-08-20T00:22:10.018Z,77.59
2022-08-20T00:23:13.004Z,77.69
2022-08-20T00:24:10.010Z,77.69
2022-08-20T00:25:10.004Z,77.78
2022-08-20T00:26:09.744Z,77.78
2022-08-20T00:27:10.002Z,78.07
2022-08-20T00:28:09.728Z,77.88
2022-08-20T00:29:09.978Z,77.88
2022-08-20T00:30:09.716Z,77.88
2022-08-20T00:31:09.979Z,77.88
2022-08-20T00:32:09.707Z,77.78
2022-08-20T00:33:09.953Z,77.88
2022-08-20T00:34:09.944Z,77.69
2022-08-20T00:35:15.494Z,77.69
2022-08-20T00:36:09.934Z,77.78
2022-08-20T00:37:09.934Z,77.4
2022-08-20T00:38:09.919Z,77.21
2022-08-20T00:39:09.923Z,77.4
2022-08-20T00:40:24.741Z,77.4
2022-08-20T00:41:09.650Z,77.21
2022-08-20T00:42:09.899Z,76.64
2022-08-20T00:43:09.640Z,76.35
2022-08-20T00:44:09.885Z,76.35
2022-08-20T00:45:09.881Z,76.73
2022-08-20T00:46:09.870Z,76.54
2022-08-20T00:47:09.875Z,76.64
2022-08-20T00:48:09.615Z,76.73
2022-08-20T00:49:09.853Z,76.35
2022-08-20T00:50:09.595Z,76.44
2022-08-20T00:51:09.852Z,76.44
2022-08-20T00:52:09.833Z,76.54
2022-08-20T00:53:09.584Z,76.44
2022-08-20T00:54:09.820Z,76.25
2022-08-20T00:55:09.562Z,76.25
2022-08-20T00:56:09.557Z,76.73
2022-08-20T00:57:09.809Z,76.64
2022-08-20T00:58:10.406Z,76.82
2022-08-20T00:59:09.795Z,76.82
2022-08-20T01:00:09.792Z,76.64
2022-08-20T01:01:09.783Z,76.64
2022-08-20T01:02:09.643Z,76.44
2022-08-20T01:03:11.220Z,76.64
2022-08-20T01:04:09.762Z,76.35
2022-08-20T01:05:09.760Z,76.44
2022-08-20T01:06:09.752Z,76.92
2022-08-20T01:07:09.745Z,76.44
2022-08-20T01:08:09.484Z,76.44
2022-08-20T01:09:09.735Z,76.73
2022-08-20T01:10:09.778Z,76.44
2022-08-20T01:11:09.725Z,76.64
2022-08-20T01:12:09.459Z,76.54
2022-08-20T01:13:09.729Z,76.35
2022-08-20T01:14:09.452Z,76.44
2022-08-20T01:15:09.693Z,77.02
2022-08-20T01:16:09.436Z,76.64
2022-08-20T01:17:09.686Z,76.44
2022-08-20T01:18:09.422Z,76.64
2022-08-20T01:19:32.361Z,76.25
2022-08-20T01:20:09.670Z,76.64
2022-08-20T01:21:09.655Z,76.54
2022-08-20T01:22:09.395Z,76.35
2022-08-20T01:23:09.655Z,76.35
2022-08-20T01:24:09.638Z,75.87
2022-08-20T01:25:09.632Z,75.96
2022-08-20T01:26:09.371Z,76.06
2022-08-20T01:27:09.637Z,75.1
2022-08-20T01:28:09.359Z,75.58
2022-08-20T01:29:09.355Z,75.39
2022-08-20T01:30:10.212Z,75.2
2022-08-20T01:31:09.593Z,75.87
2022-08-20T01:32:09.594Z,75.77
2022-08-20T01:33:09.579Z,75.68
2022-08-20T01:34:09.582Z,75.29
2022-08-20T01:35:09.319Z,75.48
2022-08-20T01:36:09.564Z,75.48
2022-08-20T01:37:09.305Z,75.96
2022-08-20T01:38:09.307Z,75.48
2022-08-20T01:39:09.538Z,75.68
2022-08-20T01:40:11.731Z,75.77
2022-08-20T01:41:09.535Z,75.48
2022-08-20T01:42:09.524Z,75.68
2022-08-20T01:43:12.046Z,75.29
2022-08-20T01:44:19.191Z,75.29
2022-08-20T01:45:09.255Z,75.1
2022-08-20T01:46:09.244Z,75.2
2022-08-20T01:47:10.363Z,75.29
2022-08-20T01:48:09.568Z,74.52
2022-08-20T01:49:18.298Z,74.52
2022-08-20T01:50:09.218Z,75.2
2022-08-20T01:51:09.212Z,75.2
2022-08-20T01:52:09.464Z,75.29
2022-08-20T01:53:09.456Z,75.68
2022-08-20T01:54:09.217Z,75.2
2022-08-20T01:55:09.190Z,75.39
2022-08-20T01:56:09.459Z,75.29
2022-08-20T01:57:09.431Z,74.82
2022-08-20T01:58:09.430Z,74.72
2022-08-20T01:59:09.418Z,74.82
2022-08-20T02:00:09.419Z,74.52
2022-08-20T02:01:09.561Z,74.52
2022-08-20T02:02:09.401Z,74.62
2022-08-20T02:03:09.393Z,74.62
2022-08-20T02:04:17.614Z,75.29
2022-08-20T02:05:09.381Z,74.52
2022-08-20T02:06:09.125Z,75.29
2022-08-20T02:07:09.116Z,75.39
2022-08-20T02:08:10.498Z,75.29
2022-08-20T02:09:11.222Z,75.48
2022-08-20T02:10:09.092Z,75.58
2022-08-20T02:11:09.494Z,75.58
2022-08-20T02:12:09.081Z,75.77
2022-08-20T02:13:09.074Z,75.48
2022-08-20T02:14:09.579Z,75.68
2022-08-20T02:15:09.073Z,75.48
2022-08-20T02:16:09.055Z,75.58
2022-08-20T02:17:09.316Z,75.58
2022-08-20T02:18:10.355Z,75.2
2022-08-20T02:19:09.297Z,74.82
2022-08-20T02:20:09.039Z,75.1
2022-08-20T02:21:09.031Z,75.58
2022-08-20T02:22:09.018Z,75.48
2022-08-20T02:23:09.267Z,75.2
2022-08-20T02:24:11.783Z,75.48
2022-08-20T02:25:09.262Z,75.48
2022-08-20T02:26:09.250Z,75.48
2022-08-20T02:27:09.243Z,75.48
2022-08-20T02:28:09.243Z,75.68
2022-08-20T02:29:08.979Z,75.48
2022-08-20T02:30:09.229Z,75.68
2022-08-20T02:31:08.968Z,75.39
2022-08-20T02:32:35.688Z,75.48
2022-08-20T02:33:09.291Z,75.68
2022-08-20T02:34:25.118Z,75.96
2022-08-20T02:35:09.194Z,76.25
2022-08-20T02:36:09.185Z,76.06
2022-08-20T02:37:08.932Z,75.96
2022-08-20T02:38:09.172Z,75.96
2022-08-20T02:39:10.308Z,76.06
2022-08-20T02:40:09.277Z,75.77
2022-08-20T02:41:09.157Z,76.44
2022-08-20T02:42:09.155Z,75.87
2022-08-20T02:43:09.142Z,75.96
2022-08-20T02:44:09.131Z,76.25
2022-08-20T02:45:09.134Z,76.54
2022-08-20T02:46:08.867Z,76.44
2022-08-20T02:47:09.120Z,76.64
2022-08-20T02:48:08.859Z,76.54
2022-08-20T02:49:09.105Z,76.44
2022-08-20T02:50:10.492Z,76.73
2022-08-20T02:51:09.102Z,76.35
2022-08-20T02:52:08.838Z,76.54
2022-08-20T02:53:08.835Z,76.54
2022-08-20T02:54:08.826Z,76.64
2022-08-20T02:55:08.816Z,76.73
2022-08-20T02:56:09.070Z,76.44
2022-08-20T02:57:08.802Z,76.35
2022-08-20T02:58:09.070Z,76.35
2022-08-20T02:59:09.049Z,76.35
2022-08-20T03:00:09.039Z,76.35
2022-08-20T03:01:09.135Z,76.54
2022-08-20T03:02:09.036Z,76.92
2022-08-20T03:03:08.768Z,76.92
2022-08-20T03:04:09.017Z,76.92
2022-08-20T03:05:09.011Z,77.31
2022-08-20T03:06:08.749Z,77.02
2022-08-20T03:07:09.007Z,77.11
2022-08-20T03:08:08.998Z,77.31
2022-08-20T03:09:08.982Z,77.31
2022-08-20T03:10:08.730Z,77.21
2022-08-20T03:11:08.718Z,77.78
2022-08-20T03:12:08.967Z,77.65
2022-08-20T03:13:08.705Z,78.03
2022-08-20T03:14:08.707Z,77.84
2022-08-20T03:15:19.507Z,77.75
2022-08-20T03:16:08.941Z,77.75
2022-08-20T03:17:08.933Z,77.94
2022-08-20T03:18:08.927Z,78.03
2022-08-20T03:19:08.668Z,78.51
2022-08-20T03:20:08.924Z,78.42
2022-08-20T03:21:12.061Z,78.61
2022-08-20T03:22:08.905Z,78.61
2022-08-20T03:23:08.902Z,78.22
2022-08-20T03:24:08.896Z,78.8
2022-08-20T03:25:08.631Z,79.18
2022-08-20T03:26:08.880Z,78.99
2022-08-20T03:27:09.745Z,78.99
2022-08-20T03:28:08.863Z,79.08
2022-08-20T03:29:08.610Z,79.08
2022-08-20T03:30:08.606Z,78.99
2022-08-20T03:31:08.843Z,79.08
2022-08-20T03:32:10.058Z,78.99
2022-08-20T03:33:08.577Z,78.89
2022-08-20T03:49:52.659Z,84.12
2022-08-20T03:50:52.653Z,85.27
2022-08-20T03:52:00.384Z,86.57
2022-08-20T03:52:52.640Z,86.28
2022-08-20T03:53:52.619Z,86.28
2022-08-20T03:54:52.359Z,86.37
2022-08-20T03:55:59.286Z,85.03
2022-08-20T03:56:52.595Z,83.79
2022-08-20T03:57:52.618Z,83.6
2022-08-20T03:58:52.335Z,83.17
2022-08-20T04:00:00.778Z,82.6
2022-08-20T04:00:52.568Z,82.51
2022-08-20T04:01:52.672Z,81.84
2022-08-20T04:02:52.546Z,81.45
2022-08-20T04:03:57.494Z,80.79
2022-08-20T04:04:52.529Z,80.79
2022-08-20T04:05:52.265Z,80.5
2022-08-20T04:06:52.264Z,80.69
2022-08-20T04:07:52.356Z,80.4
2022-08-20T04:08:52.246Z,80.69
2022-08-20T04:09:52.494Z,80.5
2022-08-20T04:10:52.226Z,80.4
2022-08-20T04:11:52.219Z,79.93
2022-08-20T04:12:55.050Z,79.16
2022-08-20T04:13:53.561Z,78.49
2022-08-20T04:14:52.475Z,78.87
2022-08-20T04:15:53.234Z,79.35
2022-08-20T04:16:53.387Z,78.78
2022-08-20T04:17:52.301Z,78.97
2022-08-20T04:19:04.397Z,78.68
2022-08-20T04:19:52.155Z,78.68
2022-08-20T04:20:52.405Z,78.97
2022-08-20T04:21:52.398Z,78.87
2022-08-20T04:23:01.374Z,78.87
2022-08-20T04:23:52.123Z,78.97
2022-08-20T04:24:52.375Z,78.39
2022-08-20T04:25:52.423Z,78.2
2022-08-20T04:26:52.357Z,77.82
2022-08-20T04:27:52.433Z,77.92
2022-08-20T04:28:52.346Z,77.63
2022-08-20T04:29:52.332Z,77.25
2022-08-20T04:30:54.388Z,77.06
2022-08-20T04:31:52.319Z,77.06
2022-08-20T04:32:52.059Z,76.86
2022-08-20T04:33:52.304Z,76.86
2022-08-20T04:34:52.302Z,76.86
2022-08-20T04:35:52.040Z,76.81
2022-08-20T04:36:52.037Z,76.39
2022-08-20T04:37:52.338Z,76
2022-08-20T04:38:53.563Z,76.23
2022-08-20T04:39:52.349Z,76.04
2022-08-20T04:40:52.252Z,76.39
2022-08-20T04:41:52.254Z,75.62
2022-08-20T04:42:56.131Z,76.14
2022-08-20T04:43:51.984Z,75.66
2022-08-20T04:44:52.223Z,75.47
2022-08-20T04:45:51.966Z,75.47
2022-08-20T04:46:51.955Z,75.66
2022-08-20T04:47:52.257Z,75.18
2022-08-20T04:48:52.910Z,74.61
2022-08-20T04:49:52.187Z,74.9
2022-08-20T04:50:52.178Z,75.37
2022-08-20T04:51:52.172Z,75.47
2022-08-20T04:52:52.163Z,75.95
2022-08-20T04:53:55.234Z,75.95
2022-08-20T04:54:51.901Z,75.66
2022-08-20T04:55:52.147Z,75.47
2022-08-20T04:56:51.881Z,75.18
2022-08-20T04:57:52.259Z,75.27
2022-08-20T04:58:51.876Z,74.61
2022-08-20T04:59:51.866Z,74.41
2022-08-20T05:00:52.024Z,74.61
2022-08-20T05:01:52.105Z,74.8
2022-08-20T05:02:52.112Z,74.61
2022-08-20T05:03:52.097Z,74.7
2022-08-20T05:04:51.831Z,74.51
2022-08-20T05:05:51.822Z,74.41
2022-08-20T05:06:52.091Z,74.93
2022-08-20T05:07:52.206Z,74.65
2022-08-20T05:08:51.799Z,74.93
2022-08-20T05:09:51.795Z,74.74
2022-08-20T05:11:01.227Z,75.7
2022-08-20T05:11:51.781Z,75.31
2022-08-20T05:12:59.680Z,75.47
2022-08-20T05:13:51.764Z,75.37
2022-08-20T05:14:52.012Z,75.12
2022-08-20T05:15:52.016Z,74.9
2022-08-20T05:16:51.997Z,74.65
2022-08-20T05:17:52.077Z,74.45
2022-08-20T05:18:54.889Z,74.55
2022-08-20T05:19:51.983Z,74.65
2022-08-20T05:20:51.713Z,74.55
2022-08-20T05:21:51.969Z,74.74
2022-08-20T05:22:51.704Z,74.55
2022-08-20T05:23:52.098Z,74.65
2022-08-20T05:24:54.870Z,74.55
2022-08-20T05:25:51.946Z,74.55
2022-08-20T05:26:51.676Z,74.65
2022-08-20T05:27:51.968Z,74.55
2022-08-20T05:28:59.940Z,74.65
2022-08-20T05:29:51.912Z,74.65
2022-08-20T05:30:51.905Z,74.26
2022-08-20T05:31:51.907Z,75.12
2022-08-20T05:32:51.893Z,74.36
2022-08-20T05:33:51.634Z,74.55
2022-08-20T05:34:51.887Z,74.84
2022-08-20T05:35:51.871Z,74.84
2022-08-20T05:36:52.019Z,74.65
2022-08-20T05:37:51.627Z,75.41
2022-08-20T05:38:51.890Z,75.12
2022-08-20T05:39:51.968Z,74.45
2022-08-20T05:40:51.585Z,74.65
2022-08-20T05:41:51.578Z,74.74
2022-08-20T05:42:51.835Z,74.68
2022-08-20T05:43:53.638Z,74.97
2022-08-20T05:44:51.821Z,74.87
2022-08-20T05:45:56.743Z,75.16
2022-08-20T05:46:51.801Z,75.07
2022-08-20T05:47:58.961Z,75.45
2022-08-20T05:48:51.790Z,75.93
2022-08-20T05:49:51.807Z,75.73
2022-08-20T05:50:51.523Z,76.6
2022-08-20T05:51:51.774Z,77.08
2022-08-20T05:52:51.505Z,77.55
2022-08-20T05:53:51.750Z,78.13
2022-08-20T05:54:51.746Z,77.46
2022-08-20T05:55:51.487Z,77.08
2022-08-20T05:56:51.480Z,77.65
2022-08-20T05:57:51.831Z,77.08
2022-08-20T05:58:54.298Z,77.17
2022-08-20T05:59:51.718Z,76.6
2022-08-20T06:00:51.543Z,76.21
2022-08-20T06:01:51.444Z,76.31
2022-08-20T06:02:51.695Z,77.08
2022-08-20T06:03:51.689Z,77.08
2022-08-20T06:04:58.763Z,76.31
2022-08-20T06:05:51.426Z,76.5
2022-08-20T06:06:51.671Z,75.73
2022-08-20T06:07:51.727Z,75.83
2022-08-20T06:08:53.344Z,76.64
2022-08-20T06:09:51.396Z,77.02
2022-08-20T06:10:51.392Z,77.84
2022-08-20T06:11:51.641Z,77.78
2022-08-20T06:12:51.649Z,77.69
2022-08-20T06:13:51.377Z,77.5
2022-08-20T06:14:51.624Z,77.88
2022-08-20T06:15:51.359Z,78.27
2022-08-20T06:17:00.013Z,77.97
2022-08-20T06:18:00.881Z,78.74
2022-08-20T06:18:51.343Z,79.51
2022-08-20T06:19:51.940Z,79.89
2022-08-20T06:20:51.588Z,79.8
2022-08-20T06:21:51.571Z,78.45
2022-08-20T06:22:51.583Z,77.5
2022-08-20T06:24:02.025Z,76.54
2022-08-20T06:24:51.365Z,76.19
2022-08-20T06:25:51.554Z,76
2022-08-20T06:26:51.546Z,76.19
2022-08-20T06:27:51.715Z,76.1
2022-08-20T06:28:56.457Z,76.29
2022-08-20T06:29:51.279Z,76.57
2022-08-20T06:30:51.531Z,76.57
2022-08-20T06:31:51.265Z,76.71
2022-08-20T06:32:51.525Z,76.14
2022-08-20T06:33:51.520Z,76.14
2022-08-20T06:34:53.175Z,76.04
2022-08-20T06:35:51.499Z,76.42
2022-08-20T06:36:51.241Z,77.42
2022-08-20T06:37:51.338Z,77.8
2022-08-20T06:38:51.482Z,78.47
2022-08-20T06:39:51.579Z,78.86
2022-08-20T06:40:51.466Z,79.24
2022-08-20T06:41:51.208Z,79.34
2022-08-20T06:42:51.526Z,80.68
2022-08-20T06:43:51.198Z,81.1
2022-08-20T06:44:51.445Z,81.49
2022-08-20T06:45:51.450Z,82.45
2022-08-20T06:46:51.181Z,82.93
2022-08-20T06:47:51.436Z,83.7
2022-08-20T06:48:51.429Z,83.74
2022-08-20T06:49:51.425Z,84.37
2022-08-20T06:50:51.166Z,85.47
2022-08-20T06:51:54.269Z,86.43
2022-08-20T06:52:55.340Z,87.29
2022-08-20T06:53:51.404Z,88.35
2022-08-20T06:54:51.400Z,89.02
2022-08-20T06:55:51.394Z,90.08
2022-08-20T06:56:51.389Z,89.89
2022-08-20T06:57:51.150Z,90.46
2022-08-20T06:58:51.385Z,91.13
2022-08-20T06:59:56.475Z,92.24
2022-08-20T07:00:51.172Z,93.49
2022-08-20T07:01:51.373Z,94.73
2022-08-20T07:02:51.460Z,96.37
2022-08-20T07:03:57.817Z,97.42
2022-08-20T07:04:51.363Z,97.71
2022-08-20T07:05:51.366Z,98.86
2022-08-20T07:06:51.344Z,99.83
2022-08-20T07:07:51.349Z,99.99
2022-08-20T07:08:51.093Z,99.99
2022-08-20T07:09:51.338Z,99.99
2022-08-20T07:10:51.327Z,99.99
2022-08-20T07:11:51.074Z,99.99
2022-08-20T07:12:51.321Z,99.99
2022-08-20T07:13:51.326Z,99.99
2022-08-20T07:14:51.320Z,99.99
2022-08-20T07:15:55.136Z,99.99
2022-08-20T07:16:51.055Z,99.99
2022-08-20T07:17:51.069Z,99.99
2022-08-20T07:18:51.048Z,99.99
2022-08-20T07:19:51.291Z,99.99
2022-08-20T07:20:52.961Z,99.99
2022-08-20T07:21:51.035Z,99.99
2022-08-20T07:22:51.028Z,99.99
2022-08-20T07:23:51.383Z,99.99
2022-08-20T07:24:51.447Z,99.99
2022-08-20T07:25:51.014Z,99.99
2022-08-20T07:26:51.271Z,99.99
2022-08-20T07:27:51.017Z,99.99
2022-08-20T07:28:51.256Z,99.99
2022-08-20T07:29:51.255Z,99.99
2022-08-20T07:30:58.818Z,99.99
2022-08-20T07:31:52.112Z,99.99
2022-08-20T07:32:51.096Z,99.99
2022-08-20T07:33:52.899Z,99.99
2022-08-20T07:34:51.288Z,99.99
2022-08-20T07:35:51.245Z,99.99
2022-08-20T07:36:51.000Z,99.99
2022-08-20T07:37:51.230Z,99.99
2022-08-20T07:38:51.232Z,99.99
2022-08-20T07:39:51.133Z,99.99
2022-08-20T07:40:50.957Z,99.99
2022-08-20T07:41:59.141Z,99.99
2022-08-20T07:42:50.952Z,99.99
2022-08-20T07:43:51.204Z,99.99
2022-08-20T07:44:51.197Z,99.99
2022-08-20T07:45:54.285Z,99.99
2022-08-20T07:46:51.185Z,99.99
2022-08-20T07:47:51.180Z,99.99
2022-08-20T07:48:51.924Z,99.99
2022-08-20T07:49:51.913Z,99.99
2022-08-20T07:50:51.913Z,99.99
2022-08-20T07:51:51.916Z,99.99
2022-08-20T07:52:51.995Z,99.99
2022-08-20T07:53:51.690Z,99.99
2022-08-20T07:54:51.897Z,99.99
2022-08-20T07:56:01.153Z,99.99
2022-08-20T07:56:51.850Z,99.99
2022-08-20T07:57:51.636Z,99.99
2022-08-20T07:58:51.635Z,99.99
2022-08-20T07:59:51.626Z,99.99
2022-08-20T08:00:51.772Z,99.99
2022-08-20T08:01:51.608Z,99.99
2022-08-20T08:02:52.055Z,99.99
2022-08-20T08:03:52.960Z,99.99
2022-08-20T08:04:51.600Z,99.99
2022-08-20T08:05:51.857Z,99.99
2022-08-20T08:06:51.592Z,99.99
2022-08-20T08:07:51.848Z,99.99
2022-08-20T08:08:51.833Z,99.99
2022-08-20T08:09:51.838Z,99.99
2022-08-20T08:10:51.578Z,99.99
2022-08-20T08:11:51.955Z,99.99
2022-08-20T08:12:51.772Z,99.99
2022-08-20T08:13:51.570Z,99.99
2022-08-20T08:14:51.819Z,99.99
2022-08-20T08:15:51.556Z,99.99
2022-08-20T08:16:51.805Z,99.99
2022-08-20T08:17:51.548Z,99.99
2022-08-20T08:18:51.804Z,99.99
2022-08-20T08:19:51.805Z,99.99
2022-08-20T08:20:51.533Z,99.99
2022-08-20T08:21:51.796Z,99.99
2022-08-20T08:22:51.530Z,99.99
2022-08-20T08:23:51.778Z,99.99
2022-08-20T08:24:59.682Z,99.99
2022-08-20T08:25:51.519Z,99.99
2022-08-20T08:26:51.768Z,99.99
2022-08-20T08:27:51.764Z,99.99
2022-08-20T08:28:51.758Z,99.99
2022-08-20T08:29:53.010Z,99.99
2022-08-20T08:30:51.746Z,99.99
2022-08-20T08:31:51.500Z,99.99
2022-08-20T08:32:51.820Z,99.99
2022-08-20T08:33:51.742Z,99.99
2022-08-20T08:34:51.480Z,99.99
2022-08-20T08:35:51.485Z,99.99
2022-08-20T08:36:51.471Z,99.99
2022-08-20T08:37:51.735Z,99.99
2022-08-20T08:38:51.719Z,99.99
2022-08-20T08:39:51.920Z,99.99
2022-08-20T08:41:01.461Z,99.99
2022-08-20T08:41:51.465Z,99.99
2022-08-20T08:42:51.699Z,99.99
2022-08-20T08:43:52.728Z,99.99
2022-08-20T08:44:51.687Z,99.99
2022-08-20T08:45:51.688Z,99.99
2022-08-20T08:46:51.429Z,99.99
2022-08-20T08:47:51.427Z,99.99
2022-08-20T08:48:51.674Z,99.99
2022-08-20T08:49:51.422Z,99.99
2022-08-20T08:50:56.902Z,99.99
2022-08-20T08:51:51.676Z,99.99
2022-08-20T08:52:51.720Z,99.99
2022-08-20T08:53:51.397Z,99.99
2022-08-20T08:54:51.653Z,99.99
2022-08-20T08:55:51.644Z,99.99
2022-08-20T08:56:52.909Z,99.99
2022-08-20T08:57:51.635Z,99.99
2022-08-20T08:58:51.379Z,99.99
2022-08-20T09:00:07.207Z,99.99
2022-08-20T09:01:01.608Z,99.99
2022-08-20T09:02:00.393Z,99.99
2022-08-20T09:03:01.116Z,99.99
2022-08-20T09:04:00.098Z,99.99
2022-08-20T09:05:00.351Z,99.99
2022-08-20T09:06:00.342Z,99.99
2022-08-20T09:07:00.096Z,99.99
2022-08-20T09:08:00.084Z,99.99
2022-08-20T09:09:00.338Z,99.99
2022-08-20T09:10:00.330Z,99.99
2022-08-20T09:11:00.326Z,99.99
2022-08-20T09:12:00.326Z,99.99
2022-08-20T09:13:00.725Z,99.99
2022-08-20T09:14:00.601Z,99.99
2022-08-20T09:15:00.338Z,99.99
2022-08-20T09:16:00.334Z,99.99
2022-08-20T09:17:00.581Z,99.99
2022-08-20T09:18:02.283Z,99.99
2022-08-20T09:19:00.324Z,99.99
2022-08-20T09:20:00.565Z,99.99
2022-08-20T09:21:00.564Z,99.99
2022-08-20T09:22:00.560Z,99.99
2022-08-20T09:23:00.760Z,99.99
2022-08-20T09:24:00.560Z,99.99
2022-08-20T09:25:00.552Z,99.99
2022-08-20T09:26:00.287Z,99.99
2022-08-20T09:27:00.538Z,99.99
2022-08-20T09:28:00.536Z,99.99
2022-08-20T09:29:01.513Z,99.99
2022-08-20T09:30:00.529Z,99.99
2022-08-20T09:31:00.545Z,99.99
2022-08-20T09:32:01.497Z,99.99
2022-08-20T09:33:00.784Z,99.99
2022-08-20T09:34:00.260Z,99.99
2022-08-20T09:35:00.251Z,99.99
2022-08-20T09:36:00.500Z,99.99
2022-08-20T09:37:00.501Z,99.99
2022-08-20T09:38:00.664Z,99.99
2022-08-20T09:39:00.235Z,99.99
2022-08-20T09:40:00.616Z,99.99
2022-08-20T09:41:00.488Z,99.99
2022-08-20T09:42:00.481Z,99.99
2022-08-20T09:43:00.835Z,99.99
2022-08-20T09:44:00.204Z,99.99
2022-08-20T09:45:00.472Z,99.99
2022-08-20T09:46:00.201Z,99.99
2022-08-20T09:47:00.194Z,99.99
2022-08-20T09:48:00.415Z,99.99
2022-08-20T09:49:00.445Z,99.99
2022-08-20T09:50:00.442Z,99.99
2022-08-20T09:51:00.480Z,99.99
2022-08-20T09:52:00.427Z,99.99
2022-08-20T09:53:00.421Z,99.99
2022-08-20T09:54:00.825Z,99.99
2022-08-20T09:55:00.160Z,99.99
2022-08-20T09:56:00.414Z,99.99
2022-08-20T09:57:00.409Z,99.99
2022-08-20T09:58:00.343Z,99.99
2022-08-20T09:59:04.796Z,99.99
2022-08-20T10:00:00.165Z,99.99
2022-08-20T10:01:00.386Z,99.99
2022-08-20T10:02:00.672Z,99.99
2022-08-20T10:03:00.124Z,99.99
2022-08-20T10:04:00.382Z,99.99
2022-08-20T10:05:00.380Z,99.99
2022-08-20T10:06:00.368Z,99.99
2022-08-20T10:07:00.103Z,99.99
2022-08-20T10:08:00.661Z,99.99
2022-08-20T10:09:00.099Z,99.99
2022-08-20T10:10:00.116Z,99.99
2022-08-20T10:11:00.091Z,99.99
2022-08-20T10:12:00.692Z,99.99
2022-08-20T10:13:00.081Z,99.99
2022-08-20T10:14:00.830Z,99.99
2022-08-20T10:15:00.068Z,99.99
2022-08-20T10:16:00.070Z,99.99
2022-08-20T10:17:02.563Z,99.99
2022-08-20T10:18:00.701Z,99.99
2022-08-20T10:19:00.058Z,99.99
2022-08-20T10:20:00.052Z,99.99
2022-08-20T10:21:00.055Z,99.99
2022-08-20T10:22:00.040Z,99.99
2022-08-20T10:23:00.035Z,99.99
2022-08-20T10:24:00.034Z,99.99
2022-08-20T10:25:00.026Z,99.99
2022-08-20T10:26:00.280Z,99.99
2022-08-20T10:27:00.274Z,99.99
2022-08-20T10:28:00.523Z,99.99
2022-08-20T10:29:00.267Z,99.99
2022-08-20T10:30:00.008Z,99.99
2022-08-20T10:31:00.255Z,99.99
2022-08-20T10:32:00.255Z,99.99
2022-08-20T10:33:00.245Z,99.99
2022-08-20T10:33:59.990Z,99.99
2022-08-20T10:35:00.253Z,99.99
2022-08-20T10:36:02.584Z,99.99
2022-08-20T10:37:00.237Z,99.99
2022-08-20T10:38:00.276Z,99.99
2022-08-20T10:38:59.968Z,99.99
2022-08-20T10:40:00.159Z,99.99
2022-08-20T10:40:59.963Z,99.99
2022-08-20T10:42:00.214Z,99.99
2022-08-20T10:42:59.959Z,99.99
2022-08-20T10:43:59.956Z,99.99
2022-08-20T10:45:00.208Z,99.99
2022-08-20T10:45:59.941Z,99.99
2022-08-20T10:47:00.203Z,99.99
2022-08-20T10:48:00.535Z,99.99
2022-08-20T10:48:59.933Z,99.99
2022-08-20T10:49:59.930Z,99.99
2022-08-20T10:50:59.930Z,99.99
2022-08-20T10:52:00.962Z,99.99
2022-08-20T10:52:59.913Z,99.99
2022-08-20T10:53:59.906Z,99.99
2022-08-20T10:54:59.905Z,99.99
2022-08-20T10:55:59.924Z,99.99
2022-08-20T10:56:59.901Z,99.99
2022-08-20T10:58:00.154Z,99.99
2022-08-20T10:59:00.146Z,99.99
2022-08-20T11:00:00.165Z,99.99
2022-08-20T11:01:00.139Z,99.99
2022-08-20T11:02:00.103Z,99.99
2022-08-20T11:03:00.127Z,99.99
2022-08-20T11:04:00.141Z,99.99
2022-08-20T11:05:00.128Z,99.99
2022-08-20T11:06:00.115Z,99.99
2022-08-20T11:07:00.115Z,99.99
2022-08-20T11:08:00.145Z,99.99
2022-08-20T11:09:00.106Z,99.99
2022-08-20T11:10:00.131Z,99.99
2022-08-20T11:10:59.842Z,99.99
2022-08-20T11:12:00.102Z,99.99
2022-08-20T11:13:00.099Z,99.99
2022-08-20T11:14:01.268Z,99.99
2022-08-20T11:14:59.828Z,99.99
2022-08-20T11:16:00.072Z,99.99
2022-08-20T11:17:00.081Z,99.99
2022-08-20T11:18:00.117Z,99.99
2022-08-20T11:19:00.082Z,99.99
2022-08-20T11:19:59.806Z,99.99
2022-08-20T11:21:00.060Z,99.99
2022-08-20T11:22:00.072Z,99.99
2022-08-20T11:23:00.056Z,99.99
2022-08-20T11:24:05.005Z,99.99
2022-08-20T11:24:59.786Z,99.99
2022-08-20T11:26:00.150Z,99.99
2022-08-20T11:27:00.080Z,99.99
2022-08-20T11:28:00.355Z,99.99
2022-08-20T11:29:00.022Z,99.99
2022-08-20T11:29:59.758Z,99.99
2022-08-20T11:31:00.192Z,99.99
2022-08-20T11:32:00.433Z,99.99
2022-08-20T11:33:00.176Z,99.99
2022-08-20T11:34:00.167Z,99.99
2022-08-20T11:35:00.415Z,99.99
2022-08-20T11:36:00.420Z,99.99
2022-08-20T11:37:00.421Z,99.99
2022-08-20T11:38:00.839Z,99.99
2022-08-20T11:39:00.146Z,99.99
2022-08-20T11:40:00.515Z,99.99
2022-08-20T11:41:00.391Z,99.99
2022-08-20T11:42:00.395Z,99.99
2022-08-20T11:43:17.922Z,99.99
2022-08-20T11:44:23.066Z,99.99
2022-08-20T11:45:00.124Z,99.99
2022-08-20T11:46:00.378Z,99.99
2022-08-20T11:47:00.116Z,99.99
2022-08-20T11:48:02.681Z,99.99
2022-08-20T11:49:00.359Z,99.99
2022-08-20T11:50:00.360Z,99.99
2022-08-20T11:51:00.098Z,99.99
2022-08-20T11:52:00.115Z,99.99
2022-08-20T11:53:01.705Z,99.99
2022-08-20T11:54:00.353Z,99.99
2022-08-20T11:55:00.095Z,99.99
2022-08-20T11:56:00.973Z,99.99
2022-08-20T11:57:00.095Z,99.99
2022-08-20T11:58:02.884Z,99.99
2022-08-20T11:59:00.327Z,99.99
2022-08-20T12:00:00.073Z,99.99
2022-08-20T12:01:00.334Z,99.99
2022-08-20T12:02:09.020Z,99.99
2022-08-20T12:03:02.524Z,99.99
2022-08-20T12:04:00.320Z,99.99
2022-08-20T12:05:00.057Z,99.99
2022-08-20T12:06:00.061Z,99.99
2022-08-20T12:07:03.401Z,99.99
2022-08-20T12:08:00.341Z,99.99
2022-08-20T12:09:00.293Z,99.99
2022-08-20T12:10:00.298Z,99.99
2022-08-20T12:11:00.049Z,99.99
2022-08-20T12:12:00.286Z,99.99
2022-08-20T12:13:00.403Z,99.99
2022-08-20T12:14:00.024Z,99.99
2022-08-20T12:15:00.274Z,99.99
2022-08-20T12:16:00.273Z,99.99
2022-08-20T12:17:00.023Z,99.99
2022-08-20T12:18:00.023Z,99.99
2022-08-20T12:19:00.259Z,99.99
2022-08-20T12:20:00.259Z,99.99
2022-08-20T12:21:00.004Z,99.99
2022-08-20T12:22:00.001Z,99.99
2022-08-20T12:23:00.708Z,99.99
2022-08-20T12:24:00.247Z,99.99
2022-08-20T12:25:00.251Z,99.99
2022-08-20T12:26:01.462Z,99.99
2022-08-20T12:27:00.241Z,99.99
2022-08-20T12:28:00.232Z,99.99
2022-08-20T12:28:59.979Z,99.99
2022-08-20T12:30:00.226Z,99.99
2022-08-20T12:30:59.971Z,99.99
2022-08-20T12:31:59.973Z,99.99
2022-08-20T12:33:00.615Z,99.99
2022-08-20T12:33:59.961Z,99.99
2022-08-20T12:35:00.225Z,99.99
2022-08-20T12:36:00.209Z,99.99
2022-08-20T12:37:00.220Z,99.99
2022-08-20T12:38:00.923Z,99.99
2022-08-20T12:39:00.204Z,99.99
2022-08-20T12:40:00.413Z,99.99
2022-08-20T12:41:00.200Z,99.99
2022-08-20T12:42:00.188Z,99.99
2022-08-20T12:43:00.397Z,99.99
2022-08-20T12:43:59.933Z,99.99
2022-08-20T12:44:59.952Z,99.99
2022-08-20T12:46:00.197Z,99.99
2022-08-20T12:47:00.182Z,99.99
2022-08-20T12:48:00.171Z,99.99
2022-08-20T12:49:00.179Z,99.99
2022-08-20T12:49:59.919Z,99.99
2022-08-20T12:51:00.169Z,99.99
2022-08-20T12:51:59.936Z,99.99
2022-08-20T12:53:00.472Z,99.99
2022-08-20T12:53:59.902Z,99.99
2022-08-20T12:55:00.201Z,99.99
2022-08-20T12:55:59.904Z,99.99
2022-08-20T12:57:00.151Z,99.99
2022-08-20T12:58:00.177Z,99.99
2022-08-20T12:58:59.889Z,99.99
2022-08-20T13:00:01.481Z,99.99
2022-08-20T13:01:00.286Z,99.99
2022-08-20T13:02:18.952Z,99.99
2022-08-20T13:03:00.383Z,99.99
2022-08-20T13:03:59.874Z,99.99
2022-08-20T13:05:06.717Z,99.99
2022-08-20T13:06:00.128Z,99.99
2022-08-20T13:06:59.870Z,99.99
2022-08-20T13:08:00.129Z,99.99
2022-08-20T13:09:00.120Z,99.99
2022-08-20T13:10:00.150Z,99.99